tititudorancea.com
Station Historical Data
Daily Summary for October 30, 2018 Units:  Metric    English   Both
« Previous Day
Next Day »
Daily Weekly Monthly Yearly Custom
  High: Low: Average:
Temperature: -17.8 °C 0 °C 11.2 °C
Dew Point: -17.8 °C -10 °C 2.9 °C
Humidity: Humidity % 23 % 63 %
Wind Speed: 0 km/h 0 km/h 7.1 km/h
Wind Gust: 0 km/h - -
Wind:- - SW
Pressure: 0 hPa 1013.1 hPa -
Precipitation: 0 mm    
Historical Graphs
 
 
Ararat weather Find more about Weather in Ararat, AU


 



 


Tabular Data for October 30, 2018
Time Temperature Dew Point Pressure Wind Wind Speed Wind Gust Humidity Rainfall Rate (Hourly)
-17.8 °C -17.8 °C 0 hPa Calm     Humidity % 0 mm
00:04 9.9 °C 5.3 °C 1015.5 hPa Calm     73 % 0 mm
00:09 9.8 °C 5.4 °C 1015.1 hPa Calm     74 % 0 mm
00:14 9.6 °C 5.2 °C 1015.1 hPa Calm     74 % 0 mm
00:19 9.4 °C 5.2 °C 1015.1 hPa Calm     75 % 0 mm
00:24 9.2 °C 5.2 °C 1015.1 hPa South 3.7 km/h 2.6 km/h 76 % 0 mm
00:29 9.1 °C 5.3 °C 1015.1 hPa South 3.7 km/h   77 % 0 mm
00:34 8.9 °C 5.3 °C 1015.5 hPa Calm     78 % 0 mm
00:39 8.7 °C 5.1 °C 1015.1 hPa Calm     78 % 0 mm
00:44 8.4 °C 5 °C 1015.1 hPa Calm     79 % 0 mm
00:49 8.1 °C 4.9 °C 1015.1 hPa Calm     80 % 0 mm
00:54 7.9 °C 4.9 °C 1015.1 hPa Calm     81 % 0 mm
00:59 7.7 °C 4.7 °C 1015.1 hPa South 3.7 km/h 2.1 km/h 81 % 0 mm
01:04 7.7 °C 5 °C 1015.1 hPa South 1.9 km/h   83 % 0 mm
01:09 7.6 °C 4.8 °C 1015.1 hPa Calm     83 % 0 mm
01:14 7.4 °C 4.8 °C 1015.1 hPa North 3.2 km/h 1 km/h 84 % 0 mm
01:19 7.3 °C 5 °C 1015.1 hPa Calm     85 % 0 mm
01:24 7.3 °C 4.9 °C 1015.1 hPa Calm     85 % 0 mm
01:29 7.2 °C 4.8 °C 1015.1 hPa Calm     85 % 0 mm
01:34 6.9 °C 4.6 °C 1015.1 hPa Calm     85 % 0 mm
01:39 6.7 °C 4.4 °C 1015.1 hPa Calm     85 % 0 mm
01:44 6.6 °C 4.4 °C 1015.1 hPa Calm     86 % 0 mm
01:49 6.4 °C 4.3 °C 1015.1 hPa Calm     86 % 0 mm
01:54 6.3 °C 4.1 °C 1015.1 hPa Calm     86 % 0 mm
01:59 6.1 °C 3.9 °C 1015.1 hPa Calm     86 % 0 mm
02:04 5.9 °C 3.8 °C 1015.1 hPa Calm     86 % 0 mm
02:09 5.8 °C 3.6 °C 1015.1 hPa Calm     86 % 0 mm
02:14 5.6 °C 3.6 °C 1015.1 hPa Calm     87 % 0 mm
02:19 5.6 °C 3.6 °C 1015.1 hPa Calm     87 % 0 mm
02:24 5.5 °C 3.5 °C 1014.8 hPa Calm     87 % 0 mm
02:29 5.4 °C 3.6 °C 1014.8 hPa Calm     88 % 0 mm
02:34 5.2 °C 3.2 °C 1014.8 hPa Calm     87 % 0 mm
02:39 5.1 °C 3.3 °C 1014.8 hPa Calm     88 % 0 mm
02:44 5.1 °C 3.4 °C 1014.8 hPa Calm     89 % 0 mm
02:49 5.1 °C 3.4 °C 1014.8 hPa Calm     89 % 0 mm
02:54 5 °C 3.3 °C 1014.8 hPa Calm     89 % 0 mm
02:59 4.9 °C 3.3 °C 1014.8 hPa Calm     89 % 0 mm
03:04 4.9 °C 3.2 °C 1014.8 hPa Calm     89 % 0 mm
03:09 4.8 °C 3.3 °C 1014.8 hPa Calm     90 % 0 mm
03:14 4.8 °C 3.3 °C 1014.8 hPa Calm     90 % 0 mm
03:19 4.8 °C 3.3 °C 1014.8 hPa Calm     90 % 0 mm
03:24 4.9 °C 3.6 °C 1014.8 hPa Calm     91 % 0 mm
03:29 4.9 °C 3.4 °C 1014.8 hPa Calm     90 % 0 mm
03:34 4.9 °C 3.6 °C 1014.8 hPa Calm     91 % 0 mm
03:39 4.9 °C 3.6 °C 1014.8 hPa Calm     91 % 0 mm
03:44 4.8 °C 3.5 °C 1014.8 hPa Calm     91 % 0 mm
03:49 4.8 °C 3.5 °C 1014.8 hPa Calm     91 % 0 mm
03:54 4.9 °C 3.6 °C 1014.8 hPa Calm     91 % 0 mm
03:59 4.8 °C 3.5 °C 1014.8 hPa Calm     91 % 0 mm
04:04 4.7 °C 3.4 °C 1014.8 hPa Calm     91 % 0 mm
04:09 4.6 °C 3.3 °C 1014.8 hPa Calm     91 % 0 mm
04:14 4.6 °C 3.2 °C 1014.8 hPa Calm     91 % 0 mm
04:19 4.4 °C 3.1 °C 1014.8 hPa Calm     91 % 0 mm
04:24 4.1 °C 2.6 °C 1014.8 hPa South 5.6 km/h 3.2 km/h 90 % 0 mm
04:29 3.6 °C 2.1 °C 1014.8 hPa South 5.6 km/h 2.1 km/h 90 % 0 mm
04:34 3.2 °C 1.7 °C 1014.8 hPa South 3.7 km/h 1.1 km/h 90 % 0 mm
04:39 3 °C 1.7 °C 1014.8 hPa Calm     91 % 0 mm
04:44 2.8 °C 1.3 °C 1014.8 hPa Calm     90 % 0 mm
04:49 2.7 °C 1.3 °C 1014.8 hPa Calm     91 % 0 mm
04:54 2.7 °C 1.3 °C 1014.8 hPa Calm     91 % 0 mm
04:59 2.9 °C 1.7 °C 1014.8 hPa Calm     92 % 0 mm
05:04 2.7 °C 1.4 °C 1014.8 hPa North 3.7 km/h 0.2 km/h 91 % 0 mm
05:09 2.5 °C 1.2 °C 1014.8 hPa Calm     91 % 0 mm
05:14 2.4 °C 1.1 °C 1014.8 hPa Calm     91 % 0 mm
05:19 2.4 °C 1.2 °C 1014.8 hPa Calm   0.6 km/h 92 % 0 mm
05:24 2.2 °C 0.9 °C 1015.1 hPa South 1.9 km/h   91 % 0 mm
05:29 2.2 °C 1 °C 1015.1 hPa Calm     92 % 0 mm
05:34 2.1 °C 0.7 °C 1015.1 hPa Calm     91 % 0 mm
05:39 2 °C 0.8 °C 1015.1 hPa Calm     92 % 0 mm
05:44 2 °C 0.8 °C 1015.1 hPa Calm     92 % 0 mm
05:49 1.9 °C 0.8 °C 1015.1 hPa Calm     92 % 0 mm
05:54 1.9 °C 0.8 °C 1015.1 hPa Calm     92 % 0 mm
05:59 1.8 °C 0.7 °C 1015.1 hPa Calm     92 % 0 mm
06:04 1.8 °C 0.6 °C 1015.1 hPa Calm     92 % 0 mm
06:09 1.8 °C 0.6 °C 1015.1 hPa Calm     92 % 0 mm
06:14 1.7 °C 0.6 °C 1015.1 hPa Calm     92 % 0 mm
06:19 1.7 °C 0.6 °C 1015.1 hPa North 3.7 km/h 1.4 km/h 92 % 0 mm
06:24 1.9 °C 0.9 °C 1015.1 hPa South 1.9 km/h   93 % 0 mm
06:29 1.9 °C 0.7 °C 1015.1 hPa Calm     92 % 0 mm
06:34 1.9 °C 0.9 °C 1015.5 hPa South 1.9 km/h   93 % 0 mm
06:39 1.9 °C 0.9 °C 1015.1 hPa Calm     93 % 0 mm
06:44 1.9 °C 0.9 °C 1015.1 hPa Calm     93 % 0 mm
06:49 1.9 °C 0.7 °C 1015.5 hPa Calm     92 % 0 mm
06:54 1.9 °C 0.9 °C 1015.5 hPa Calm     93 % 0 mm
06:59 2.1 °C 1.1 °C 1015.5 hPa Calm     93 % 0 mm
07:04 2.3 °C 1.3 °C 1015.5 hPa Calm     93 % 0 mm
07:09 2.4 °C 1.4 °C 1015.8 hPa Calm     93 % 0 mm
07:14 2.6 °C 1.6 °C 1015.8 hPa Calm     93 % 0 mm
07:19 2.7 °C 1.7 °C 1015.8 hPa Calm     93 % 0 mm
07:24 2.8 °C 1.9 °C 1015.8 hPa Calm     94 % 0 mm
07:29 3.2 °C 2.3 °C 1015.8 hPa Calm     94 % 0 mm
07:34 3.7 °C 2.9 °C 1015.8 hPa Calm     95 % 0 mm
07:39 4.2 °C 3.5 °C 1015.8 hPa Calm     95 % 0 mm
07:44 4.9 °C 4.2 °C 1016.1 hPa Calm     95 % 0 mm
07:49 5.5 °C 4.8 °C 1016.1 hPa Calm     95 % 0 mm
07:54 6.2 °C 5.5 °C 1016.1 hPa Calm     95 % 0 mm
07:59 6.9 °C 6.2 °C 1016.1 hPa Calm     95 % 0 mm
08:04 7.2 °C 6.2 °C 1016.1 hPa Calm     93 % 0 mm
08:09 7.4 °C 6.2 °C 1016.1 hPa Calm     92 % 0 mm
08:14 8.1 °C 7 °C 1016.1 hPa Calm     93 % 0 mm
08:19 9 °C 7.8 °C 1016.1 hPa Calm     92 % 0 mm
08:24 9.6 °C 7.9 °C 1016.1 hPa South 1.9 km/h 1 km/h 89 % 0 mm
08:29 10.2 °C 8.1 °C 1016.1 hPa Calm     87 % 0 mm
08:34 10.8 °C 8.3 °C 1016.5 hPa Calm     85 % 0 mm
08:39 11.3 °C 8 °C 1016.5 hPa Calm     80 % 0 mm
08:42 11.6 °C 8.1 °C 1016.5 hPa South 1.9 km/h 1.1 km/h 79 % 0 mm
08:55 0 °C -10 °C 1016.5 hPa Calm     47 % 0 mm
09:00 0 °C -10 °C 1016.5 hPa Calm     47 % 0 mm
09:05 0 °C -10 °C 1016.5 hPa Calm     47 % 0 mm
09:10 0 °C -10 °C 1016.5 hPa Calm     47 % 0 mm
09:15 0 °C -10 °C 1016.5 hPa Calm     47 % 0 mm
09:20 0 °C -10 °C 1016.5 hPa Calm     47 % 0 mm
09:25 0 °C -10 °C 1016.5 hPa Calm     47 % 0 mm
09:30 0 °C -10 °C 1016.5 hPa Calm     47 % 0 mm
09:35 0 °C -10 °C 1016.5 hPa Calm     47 % 0 mm
09:40 0 °C -10 °C 1016.5 hPa Calm     47 % 0 mm
09:45 0 °C -10 °C 1016.5 hPa Calm     47 % 0 mm
09:50 0 °C -10 °C 1016.5 hPa Calm     47 % 0 mm
09:55 0 °C -10 °C 1016.1 hPa Calm     47 % 0 mm
10:00 0 °C -10 °C 1016.1 hPa Calm     47 % 0 mm
10:05 0 °C -10 °C 1016.1 hPa Calm     47 % 0 mm
10:10 0 °C -10 °C 1016.1 hPa Calm     47 % 0 mm
10:15 0 °C -10 °C 1016.1 hPa Calm     47 % 0 mm
10:20 0 °C -10 °C 1016.1 hPa Calm     47 % 0 mm
10:25 0 °C -10 °C 1016.1 hPa Calm     47 % 0 mm
10:30 0 °C -10 °C 1016.1 hPa Calm     47 % 0 mm
10:35 0 °C -10 °C 1016.1 hPa Calm     47 % 0 mm
10:40 0 °C -10 °C 1015.8 hPa Calm     47 % 0 mm
10:45 0 °C -10 °C 1015.8 hPa Calm     47 % 0 mm
10:50 0 °C -10 °C 1016.1 hPa Calm     47 % 0 mm
10:55 0 °C -10 °C 1015.8 hPa Calm     47 % 0 mm
11:00 0 °C -10 °C 1015.8 hPa Calm     47 % 0 mm
11:05 0 °C -10 °C 1015.8 hPa Calm     47 % 0 mm
11:10 0 °C -10 °C 1015.8 hPa Calm     47 % 0 mm
11:15 0 °C -10 °C 1015.8 hPa Calm     47 % 0 mm
11:20 0 °C -10 °C 1015.8 hPa Calm     47 % 0 mm
11:25 0 °C -10 °C 1015.8 hPa Calm     47 % 0 mm
11:30 0 °C -10 °C 1015.8 hPa Calm     47 % 0 mm
11:35 0 °C -10 °C 1015.8 hPa Calm     47 % 0 mm
11:40 0 °C -10 °C 1015.8 hPa Calm     47 % 0 mm
11:45 0 °C -10 °C 1015.5 hPa Calm     47 % 0 mm
11:50 0 °C -10 °C 1015.5 hPa Calm     47 % 0 mm
11:55 0 °C -10 °C 1015.5 hPa Calm     47 % 0 mm
12:00 0 °C -10 °C 1015.5 hPa Calm     47 % 0 mm
12:05 0 °C -10 °C 1015.5 hPa Calm     47 % 0 mm
12:10 0 °C -10 °C 1015.5 hPa Calm     47 % 0 mm
12:15 0 °C -10 °C 1015.5 hPa Calm     47 % 0 mm
12:20 0 °C -10 °C 1015.5 hPa Calm     47 % 0 mm
12:25 0 °C -10 °C 1015.1 hPa Calm     47 % 0 mm
12:30 0 °C -10 °C 1015.1 hPa Calm     47 % 0 mm
12:35 0 °C -10 °C 1015.1 hPa Calm     47 % 0 mm
12:40 0 °C -10 °C 1015.1 hPa Calm     47 % 0 mm
12:45 0 °C -10 °C 1015.1 hPa Calm     47 % 0 mm
12:50 0 °C -10 °C 1015.1 hPa Calm     47 % 0 mm
12:55 0 °C -10 °C 1015.1 hPa Calm     47 % 0 mm
13:00 0 °C -10 °C 1014.8 hPa Calm     47 % 0 mm
13:14 23.9 °C 1.5 °C 1014.8 hPa WNW 6.4 km/h 5.6 km/h 23 % 0 mm
13:19 23.8 °C 1.4 °C 1014.8 hPa WNW 5.6 km/h 5.8 km/h 23 % 0 mm
13:24 23.7 °C 1.9 °C 1014.8 hPa WNW 13 km/h 11.1 km/h 24 % 0 mm
13:29 23.8 °C 2.1 °C 1014.4 hPa West 16.7 km/h 9.2 km/h 24 % 0 mm
13:34 24.1 °C 2.8 °C 1014.4 hPa WNW 20.4 km/h 13.2 km/h 25 % 0 mm
13:39 24.2 °C 2.9 °C 1014.4 hPa West 18.5 km/h 14.3 km/h 25 % 0 mm
13:44 24.3 °C 3 °C 1014.1 hPa West 13 km/h 7.9 km/h 25 % 0 mm
13:49 24.3 °C 3.6 °C 1014.4 hPa West 18.5 km/h 14.8 km/h 26 % 0 mm
13:54 24.2 °C 2.3 °C 1014.4 hPa WNW 7.4 km/h 6.1 km/h 24 % 0 mm
13:59 24.7 °C 3.9 °C 1014.1 hPa WNW 13 km/h 7.4 km/h 26 % 0 mm
14:04 24.8 °C 3.4 °C 1014.1 hPa NW 13 km/h 8.2 km/h 25 % 0 mm
14:09 25 °C 3 °C 1014.1 hPa WNW 25.9 km/h 13.4 km/h 24 % 0 mm
14:14 25.1 °C 3.1 °C 1014.1 hPa WNW 13 km/h 5.3 km/h 24 % 0 mm
14:19 25.3 °C 3.9 °C 1014.1 hPa West 18.5 km/h 14.3 km/h 25 % 0 mm
14:24 25.2 °C 3.7 °C 1014.1 hPa NW 22.5 km/h 15.9 km/h 25 % 0 mm
14:29 24.8 °C 4.5 °C 1014.1 hPa WNW 16.7 km/h 14.3 km/h 27 % 0 mm
14:34 24.8 °C 4.5 °C 1014.1 hPa WNW 14.8 km/h 11.6 km/h 27 % 0 mm
14:39 25.2 °C 4.3 °C 1014.1 hPa WNW 18.5 km/h 15.1 km/h 26 % 0 mm
14:44 24.9 °C 4.1 °C 1013.8 hPa West 22.5 km/h 19.5 km/h 26 % 0 mm
14:49 25.1 °C 4.7 °C 1013.8 hPa West 20.4 km/h 13.2 km/h 27 % 0 mm
14:54 25.1 °C 5.3 °C 1014.1 hPa West 22.2 km/h 11.3 km/h 28 % 0 mm
14:59 25.2 °C 5.3 °C 1013.8 hPa West 7.4 km/h 5.1 km/h 28 % 0 mm
15:04 25.4 °C 4.6 °C 1013.8 hPa NW 24.1 km/h 7.6 km/h 26 % 0 mm
15:09 25.7 °C 5.8 °C 1013.8 hPa West 9.7 km/h 12.2 km/h 28 % 0 mm
15:14 25.9 °C 6 °C 1013.8 hPa North 24.1 km/h 14.2 km/h 28 % 0 mm
15:19 25.8 °C 5.9 °C 1013.8 hPa WNW 18.5 km/h 14.2 km/h 28 % 0 mm
15:24 25.8 °C 5.3 °C 1013.4 hPa WNW 13 km/h 7.7 km/h 27 % 0 mm
15:29 25.9 °C 6 °C 1013.4 hPa West 18.5 km/h 15 km/h 28 % 0 mm
15:34 25.7 °C 5.8 °C 1013.4 hPa West 18.5 km/h 15.9 km/h 28 % 0 mm
15:39 25.6 °C 6.2 °C 1013.4 hPa WSW 16.7 km/h 11.1 km/h 29 % 0 mm
15:44 25.8 °C 5.9 °C 1013.4 hPa West 17.7 km/h 10.3 km/h 28 % 0 mm
15:49 25.8 °C 5.9 °C 1013.4 hPa West 14.8 km/h 14.2 km/h 28 % 0 mm
15:54 25.8 °C 5.9 °C 1013.4 hPa WSW 14.5 km/h 10.8 km/h 28 % 0 mm
15:59 25.7 °C 6.8 °C 1013.4 hPa SW 31.5 km/h 14.2 km/h 30 % 0 mm
16:04 26 °C 6.6 °C 1013.4 hPa WSW 18.5 km/h 12.7 km/h 29 % 0 mm
16:09 26 °C 6.1 °C 1013.4 hPa West 20.4 km/h 10.3 km/h 28 % 0 mm
16:14 26.3 °C 6.3 °C 1013.1 hPa West 17.7 km/h 11.3 km/h 28 % 0 mm
16:19 26.2 °C 6.3 °C 1013.1 hPa SW 18.5 km/h 12.7 km/h 28 % 0 mm
16:24 26.2 °C 5.7 °C 1013.1 hPa WNW 16.7 km/h 5.3 km/h 27 % 0 mm
16:29 26.4 °C 6.4 °C 1013.1 hPa North 11.1 km/h 9 km/h 28 % 0 mm
16:34 26.6 °C 6.1 °C 1013.1 hPa WSW 22.2 km/h 12.7 km/h 27 % 0 mm
16:39 26.3 °C 6.3 °C 1013.1 hPa WSW 16.7 km/h 8.7 km/h 28 % 0 mm
16:44 26.2 °C 5.7 °C 1013.1 hPa West 22.2 km/h 11.9 km/h 27 % 0 mm
16:49 26.1 °C 6.7 °C 1013.4 hPa West 16.7 km/h 13 km/h 29 % 0 mm
16:54 26.2 °C 5.7 °C 1013.1 hPa West 11.1 km/h 7.9 km/h 27 % 0 mm
16:59 26.2 °C 5.7 °C 1013.1 hPa WSW 20.4 km/h 11.9 km/h 27 % 0 mm
17:04 25.9 °C 5.5 °C 1013.1 hPa SW 24.1 km/h 14.6 km/h 27 % 0 mm
17:09 25.9 °C 6.5 °C 1013.4 hPa West 18.5 km/h 10.3 km/h 29 % 0 mm
17:14 25.9 °C 6 °C 1013.4 hPa West 12.9 km/h 9.7 km/h 28 % 0 mm
17:19 26.2 °C 6.2 °C 1013.4 hPa WNW 11.3 km/h 11.6 km/h 28 % 0 mm
17:24 25.9 °C 6 °C 1013.4 hPa WSW 18.5 km/h 14.6 km/h 28 % 0 mm
17:29 25.7 °C 5.8 °C 1013.4 hPa WSW 16.7 km/h 12.1 km/h 28 % 0 mm
17:34 25.6 °C 6.2 °C 1013.4 hPa WSW 12.9 km/h 9 km/h 29 % 0 mm
17:39 25.8 °C 5.9 °C 1013.4 hPa West 19.3 km/h 12.7 km/h 28 % 0 mm
17:44 25.8 °C 5.9 °C 1013.4 hPa WNW 18.5 km/h 14.3 km/h 28 % 0 mm
17:49 25.7 °C 6.3 °C 1013.4 hPa WNW 16.7 km/h 10.1 km/h 29 % 0 mm
17:54 25.8 °C 6.4 °C 1013.4 hPa West 18.5 km/h 8.5 km/h 29 % 0 mm
17:59 25.6 °C 6.2 °C 1013.4 hPa WSW 9.7 km/h 6 km/h 29 % 0 mm
18:04 25.5 °C 6.2 °C 1013.4 hPa WSW 5.6 km/h 1 km/h 29 % 0 mm
18:09 25.8 °C 6.4 °C 1013.4 hPa West 16.7 km/h 10.3 km/h 29 % 0 mm
18:14 25.8 °C 6.9 °C 1013.4 hPa West 11.1 km/h 9.7 km/h 30 % 0 mm
18:19 25.6 °C 6.7 °C 1013.4 hPa SW 11.3 km/h 11.9 km/h 30 % 0 mm
18:24 25.2 °C 6.8 °C 1013.4 hPa SW 14.8 km/h 10 km/h 31 % 0 mm
18:29 25.1 °C 7.2 °C 1013.8 hPa SW 16.7 km/h 9.7 km/h 32 % 0 mm
18:34 24.9 °C 7.1 °C 1013.8 hPa SW 19.3 km/h 11.1 km/h 32 % 0 mm
18:39 24.5 °C 7.2 °C 1013.8 hPa SW 27.8 km/h 15.6 km/h 33 % 0 mm
18:44 24.3 °C 7.4 °C 1013.8 hPa SSW 22.2 km/h 13.7 km/h 34 % 0 mm
18:49 24.2 °C 7.7 °C 1014.1 hPa SSW 27.8 km/h 13 km/h 35 % 0 mm
18:54 24 °C 7.6 °C 1014.1 hPa SSW 18.5 km/h 17.2 km/h 35 % 0 mm
18:59 23.9 °C 7.9 °C 1014.1 hPa SSW 16.7 km/h 13 km/h 36 % 0 mm
19:04 23.7 °C 7.7 °C 1014.1 hPa SSW 20.4 km/h 12.2 km/h 36 % 0 mm
19:09 23.6 °C 8 °C 1014.1 hPa SW 16.1 km/h 10.9 km/h 37 % 0 mm
19:14 23.4 °C 8.3 °C 1014.1 hPa SW 14.8 km/h 7.6 km/h 38 % 0 mm
19:19 23.2 °C 8.8 °C 1014.4 hPa SSW 14.8 km/h 10.3 km/h 40 % 0 mm
19:24 22.9 °C 8.6 °C 1014.4 hPa SW 18.5 km/h 11.3 km/h 40 % 0 mm
19:29 22.7 °C 8.7 °C 1014.4 hPa SW 11.1 km/h 7.4 km/h 41 % 0 mm
19:34 22.3 °C 9.5 °C 1014.8 hPa SSW 22.2 km/h 19.5 km/h 44 % 0 mm
19:39 21.8 °C 9.9 °C 1014.8 hPa SSW 18.5 km/h 9.8 km/h 47 % 0 mm
19:44 21.2 °C 11.2 °C 1015.1 hPa South 20.4 km/h 12.4 km/h 53 % 0 mm
19:49 20.5 °C 11.4 °C 1014.8 hPa South 18.5 km/h 9 km/h 56 % 0 mm
19:54 20.1 °C 11.6 °C 1015.1 hPa South 18.5 km/h 11.9 km/h 58 % 0 mm
19:59 19.7 °C 11.9 °C 1015.1 hPa SW 20.4 km/h 10.6 km/h 61 % 0 mm
20:04 19.2 °C 12.2 °C 1015.1 hPa South 18.5 km/h 10.8 km/h 64 % 0 mm
20:09 18.7 °C 12.4 °C 1015.1 hPa South 24.1 km/h 17.5 km/h 67 % 0 mm
20:14 18.2 °C 12.4 °C 1015.5 hPa South 13 km/h 8.9 km/h 69 % 0 mm
20:19 17.7 °C 12.4 °C 1015.5 hPa South 18.5 km/h 10.3 km/h 71 % 0 mm
20:24 17.3 °C 12.2 °C 1015.5 hPa SSE 20.4 km/h 15 km/h 72 % 0 mm
20:29 16.8 °C 11.9 °C 1015.8 hPa South 18.5 km/h 7.7 km/h 73 % 0 mm
20:34 16.4 °C 12 °C 1016.1 hPa SSE 27.8 km/h 8.9 km/h 75 % 0 mm
20:39 16.2 °C 11.9 °C 1016.1 hPa South 16.7 km/h 11.1 km/h 76 % 0 mm
20:44 15.8 °C 11.6 °C 1016.5 hPa South 18.5 km/h 8.9 km/h 76 % 0 mm
20:49 15.3 °C 11.3 °C 1016.5 hPa South 16.7 km/h 13.8 km/h 77 % 0 mm
20:54 14.9 °C 11.2 °C 1016.5 hPa SSW 22.2 km/h 16.9 km/h 78 % 0 mm
20:59 14.7 °C 11.1 °C 1016.8 hPa South 16.7 km/h 14.5 km/h 79 % 0 mm
21:04 14.4 °C 11.1 °C 1016.8 hPa South 13 km/h 6.4 km/h 80 % 0 mm
21:09 14.3 °C 10.9 °C 1016.8 hPa South 13 km/h 10.3 km/h 80 % 0 mm
21:14 14.1 °C 10.9 °C 1016.8 hPa South 9.3 km/h 7.7 km/h 81 % 0 mm
21:19 13.9 °C 10.7 °C 1016.8 hPa South 9.3 km/h 8.7 km/h 81 % 0 mm
21:24 13.7 °C 10.7 °C 1017.2 hPa South 13 km/h 8 km/h 82 % 0 mm
21:29 13.4 °C 10.6 °C 1017.2 hPa South 11.1 km/h 6 km/h 83 % 0 mm
21:34 13.3 °C 10.5 °C 1017.2 hPa South 9.3 km/h 6.8 km/h 83 % 0 mm
21:39 13.2 °C 10.4 °C 1017.2 hPa South 8 km/h 7.1 km/h 83 % 0 mm
21:44 13.1 °C 10.4 °C 1017.2 hPa South 13 km/h 8.2 km/h 84 % 0 mm
21:49 12.9 °C 10.3 °C 1017.2 hPa South 7.4 km/h 6.4 km/h 84 % 0 mm
21:54 12.9 °C 10.4 °C 1017.2 hPa South 9.3 km/h 4.8 km/h 85 % 0 mm
21:59 12.8 °C 10.3 °C 1017.2 hPa South 11.1 km/h 4.7 km/h 85 % 0 mm
22:04 12.7 °C 10.2 °C 1017.2 hPa South 11.1 km/h 8.2 km/h 85 % 0 mm
22:09 12.5 °C 10.1 °C 1017.5 hPa South 14.8 km/h 8 km/h 85 % 0 mm
22:14 12.4 °C 10.2 °C 1017.5 hPa South 13 km/h 8.2 km/h 86 % 0 mm
22:19 12.3 °C 10.1 °C 1017.5 hPa South 11.1 km/h 7.1 km/h 86 % 0 mm
22:24 12.3 °C 10 °C 1017.5 hPa South 11.1 km/h 9.3 km/h 86 % 0 mm
22:29 12.2 °C 10.1 °C 1017.5 hPa South 13 km/h 10.6 km/h 87 % 0 mm
22:34 12.2 °C 10.1 °C 1017.5 hPa South 11.3 km/h 8.9 km/h 87 % 0 mm
22:39 12.1 °C 9.9 °C 1017.5 hPa South 13 km/h 9.5 km/h 87 % 0 mm
22:44 11.9 °C 9.8 °C 1017.5 hPa South 11.1 km/h 8.2 km/h 87 % 0 mm
22:49 11.8 °C 9.7 °C 1017.5 hPa South 11.3 km/h 7.7 km/h 87 % 0 mm
22:54 11.7 °C 9.8 °C 1017.5 hPa South 11.1 km/h 7.7 km/h 88 % 0 mm
22:59 11.6 °C 9.7 °C 1017.5 hPa South 9.3 km/h 7.4 km/h 88 % 0 mm
23:04 11.4 °C 9.5 °C 1017.5 hPa North 9.3 km/h 7.4 km/h 88 % 0 mm
23:09 11.4 °C 9.4 °C 1017.5 hPa South 11.1 km/h 5 km/h 88 % 0 mm
23:14 11.3 °C 9.4 °C 1017.5 hPa South 7.4 km/h 3.9 km/h 88 % 0 mm
23:19 11.2 °C 9.5 °C 1017.2 hPa South 7.4 km/h 5 km/h 89 % 0 mm
23:24 11.1 °C 9.4 °C 1017.2 hPa South 7.4 km/h 5.8 km/h 89 % 0 mm
23:29 11 °C 9.3 °C 1017.2 hPa South 6.4 km/h 4.2 km/h 89 % 0 mm
23:34 10.9 °C 9.2 °C 1017.2 hPa South 3.7 km/h 0.6 km/h 89 % 0 mm
23:39 10.9 °C 9.3 °C 1017.2 hPa South 8 km/h 5.3 km/h 90 % 0 mm
23:44 10.8 °C 9.2 °C 1017.2 hPa South 9.3 km/h 5.1 km/h 90 % 0 mm
23:49 10.7 °C 9.1 °C 1017.2 hPa North 3.7 km/h   90 % 0 mm
23:54 10.6 °C 9.1 °C 1017.2 hPa South 3.7 km/h 2.7 km/h 90 % 0 mm
23:59 10.6 °C 9 °C 1017.2 hPa South 9.7 km/h 4.2 km/h 90 % 0 mm
Ararat Weather
Compliments of Weather Underground - 2.25 mb
Click here to send mail.


ABOUT

Live weather data from Ararat, Victoria, Australia, 3377
Data uploaded from Cumulus every 5 minutes to Weather Underground.
This site then downloads the raw data for formatting and display.
Metric and imperial data can be displayed. Graphs and historical data available.
Includes Sun and Moon times and rain image live from BOM.

Check out Ararat Weather on Facebook, Twitter and Google +

Help support ongoing costs by checking out the ads





Follow @AraratWeather